createdAt,value
2023-02-09T00:00:28.834Z,-1.61
2023-02-09T00:01:13.888Z,-1.62
2023-02-09T00:01:55.667Z,-1.74
2023-02-09T00:02:38.182Z,-1.64
2023-02-09T00:03:19.940Z,-1.64
2023-02-09T00:04:02.664Z,-1.69
2023-02-09T00:04:44.423Z,-1.66
2023-02-09T00:05:26.110Z,-1.76
2023-02-09T00:06:09.396Z,-1.65
2023-02-09T00:06:51.116Z,-1.84
2023-02-09T00:07:32.945Z,-1.65
2023-02-09T00:08:14.591Z,-1.71
2023-02-09T00:08:56.950Z,-1.71
2023-02-09T00:09:38.639Z,-1.70
2023-02-09T00:10:20.510Z,-1.84
2023-02-09T00:11:10.401Z,-1.66
2023-02-09T00:12:10.717Z,-1.67
2023-02-09T00:13:10.916Z,-1.75
2023-02-09T00:13:52.577Z,-1.72
2023-02-09T00:14:34.686Z,-1.72
2023-02-09T00:15:16.352Z,-1.89
2023-02-09T00:16:01.785Z,-1.88
2023-02-09T00:16:43.960Z,-1.76
2023-02-09T00:17:25.776Z,-1.97
2023-02-09T00:18:07.466Z,-1.84
2023-02-09T00:18:49.176Z,-1.78
2023-02-09T00:19:33.232Z,-1.93
2023-02-09T00:20:15.047Z,-2.20
2023-02-09T00:20:58.993Z,-1.79
2023-02-09T00:21:41.205Z,-1.81
2023-02-09T00:22:23.003Z,-1.81
2023-02-09T00:23:04.875Z,-1.84
2023-02-09T00:23:46.588Z,-1.88
2023-02-09T00:24:28.364Z,-1.87
2023-02-09T00:25:10.094Z,-1.83
2023-02-09T00:25:52.869Z,-1.84
2023-02-09T00:26:34.518Z,-1.84
2023-02-09T00:27:16.368Z,-1.84
2023-02-09T00:27:58.056Z,-1.84
2023-02-09T00:28:39.724Z,-2.03
2023-02-09T00:29:23.806Z,-2.01
2023-02-09T00:30:06.024Z,-1.86
2023-02-09T00:30:48.221Z,-1.86
2023-02-09T00:31:30.338Z,-1.86
2023-02-09T00:32:13.421Z,-2.01
2023-02-09T00:32:55.075Z,-2.00
2023-02-09T00:33:37.615Z,-1.83
2023-02-09T00:34:19.731Z,-1.81
2023-02-09T00:35:03.095Z,-1.78
2023-02-09T00:35:45.015Z,-1.76
2023-02-09T00:36:27.155Z,-1.74
2023-02-09T00:37:08.868Z,-1.73
2023-02-09T00:37:50.537Z,-1.80
2023-02-09T00:38:32.309Z,-1.71
2023-02-09T00:39:13.973Z,-1.74
2023-02-09T00:39:55.632Z,-1.73
2023-02-09T00:40:38.543Z,-1.68
2023-02-09T00:41:40.693Z,-1.68
2023-02-09T00:42:23.334Z,-1.79
2023-02-09T00:43:05.450Z,-1.68
2023-02-09T00:43:47.136Z,-1.89
2023-02-09T00:44:29.137Z,-1.90
2023-02-09T00:45:10.860Z,-1.70
2023-02-09T00:45:55.292Z,-1.76
2023-02-09T00:46:37.138Z,-1.72
2023-02-09T00:47:18.843Z,-1.69
2023-02-09T00:48:01.084Z,-1.70
2023-02-09T00:48:42.716Z,-1.71
2023-02-09T00:49:25.560Z,-1.73
2023-02-09T00:50:08.485Z,-1.77
2023-02-09T00:50:51.868Z,-1.74
2023-02-09T00:51:33.623Z,-1.75
2023-02-09T00:52:17.063Z,-1.75
2023-02-09T00:52:58.719Z,-1.77
2023-02-09T00:53:40.431Z,-1.84
2023-02-09T00:54:22.350Z,-1.89
2023-02-09T00:55:05.123Z,-1.87
2023-02-09T00:55:47.286Z,-1.77
2023-02-09T00:56:29.003Z,-2.00
2023-02-09T00:57:11.829Z,-1.87
2023-02-09T00:57:53.563Z,-2.00
2023-02-09T00:58:35.185Z,-1.87
2023-02-09T00:59:17.066Z,-1.82
2023-02-09T00:59:58.769Z,-1.83
2023-02-09T01:00:40.683Z,-1.89
2023-02-09T01:01:22.398Z,-1.98
2023-02-09T01:02:04.192Z,-1.85
2023-02-09T01:02:45.927Z,-1.93
2023-02-09T01:03:27.962Z,-1.95
2023-02-09T01:04:09.783Z,-1.99
2023-02-09T01:04:51.420Z,-1.82
2023-02-09T01:05:33.368Z,-1.87
2023-02-09T01:06:15.067Z,-1.84
2023-02-09T01:06:56.884Z,-1.83
2023-02-09T01:07:38.601Z,-1.83
2023-02-09T01:08:20.270Z,-2.01
2023-02-09T01:09:02.501Z,-1.92
2023-02-09T01:09:44.277Z,-1.85
2023-02-09T01:10:26.029Z,-1.85
2023-02-09T01:11:11.978Z,-2.00
2023-02-09T01:11:53.688Z,-1.86
2023-02-09T01:12:35.412Z,-1.86
2023-02-09T01:13:18.937Z,-1.86
2023-02-09T01:14:00.758Z,-1.95
2023-02-09T01:14:42.411Z,-2.06
2023-02-09T01:15:24.057Z,-2.04
2023-02-09T01:16:11.594Z,-1.88
2023-02-09T01:16:55.123Z,-1.97
2023-02-09T01:17:37.549Z,-1.87
2023-02-09T01:18:19.204Z,-2.08
2023-02-09T01:19:02.402Z,-1.89
2023-02-09T01:19:44.296Z,-2.13
2023-02-09T01:20:26.221Z,-1.94
2023-02-09T01:21:16.408Z,-2.01
2023-02-09T01:21:58.062Z,-1.99
2023-02-09T01:22:40.668Z,-2.01
2023-02-09T01:23:22.295Z,-2.15
2023-02-09T01:24:05.112Z,-2.24
2023-02-09T01:24:47.717Z,-2.08
2023-02-09T01:25:31.070Z,-2.31
2023-02-09T01:26:13.868Z,-2.18
2023-02-09T01:26:55.579Z,-2.08
2023-02-09T01:27:38.078Z,-2.24
2023-02-09T01:28:19.792Z,-2.13
2023-02-09T01:29:01.488Z,-2.08
2023-02-09T01:29:43.382Z,-2.08
2023-02-09T01:30:26.375Z,-2.12
2023-02-09T01:31:21.089Z,-2.11
2023-02-09T01:32:05.430Z,-2.11
2023-02-09T01:32:47.096Z,-2.28
2023-02-09T01:33:29.345Z,-2.31
2023-02-09T01:34:13.696Z,-2.10
2023-02-09T01:34:55.516Z,-2.29
2023-02-09T01:35:37.145Z,-2.24
2023-02-09T01:36:19.128Z,-2.11
2023-02-09T01:37:02.343Z,-2.17
2023-02-09T01:37:44.053Z,-2.29
2023-02-09T01:38:25.957Z,-2.33
2023-02-09T01:39:08.365Z,-2.29
2023-02-09T01:39:50.104Z,-2.19
2023-02-09T01:40:32.219Z,-2.29
2023-02-09T01:41:14.413Z,-2.21
2023-02-09T01:41:56.309Z,-2.32
2023-02-09T01:42:38.080Z,-2.37
2023-02-09T01:43:19.860Z,-2.23
2023-02-09T01:44:07.994Z,-2.17
2023-02-09T01:44:49.632Z,-2.17
2023-02-09T01:45:41.471Z,-2.16
2023-02-09T01:46:25.468Z,-2.30
2023-02-09T01:47:14.183Z,-2.34
2023-02-09T01:48:01.610Z,-2.20
2023-02-09T01:48:43.334Z,-2.27
2023-02-09T01:49:27.616Z,-2.24
2023-02-09T01:50:09.972Z,-2.47
2023-02-09T01:50:56.951Z,-2.30
2023-02-09T01:51:42.622Z,-2.35
2023-02-09T01:52:28.794Z,-2.54
2023-02-09T01:53:10.810Z,-2.30
2023-02-09T01:53:53.011Z,-2.34
2023-02-09T01:55:06.085Z,-2.38
2023-02-09T01:55:55.632Z,-2.42
2023-02-09T01:56:40.774Z,-2.48
2023-02-09T01:57:27.117Z,-2.65
2023-02-09T01:58:15.941Z,-2.56
2023-02-09T01:58:58.597Z,-2.78
2023-02-09T01:59:44.479Z,-2.96
2023-02-09T02:00:26.580Z,-2.73
2023-02-09T02:01:08.509Z,-2.68
2023-02-09T02:01:51.468Z,-2.72
2023-02-09T02:02:33.187Z,-2.72
2023-02-09T02:03:21.175Z,-2.88
2023-02-09T02:04:03.755Z,-2.81
2023-02-09T02:04:45.745Z,-2.78
2023-02-09T02:05:29.194Z,-2.80
2023-02-09T02:06:14.235Z,-2.82
2023-02-09T02:07:01.423Z,-2.83
2023-02-09T02:07:50.115Z,-2.84
2023-02-09T02:08:51.431Z,-2.87
2023-02-09T02:09:33.149Z,-2.89
2023-02-09T02:10:15.024Z,-3.04
2023-02-09T02:10:57.545Z,-2.93
2023-02-09T02:11:42.323Z,-2.97
2023-02-09T02:12:24.967Z,-3.00
2023-02-09T02:13:06.620Z,-2.94
2023-02-09T02:13:48.277Z,-2.94
2023-02-09T02:14:34.214Z,-2.93
2023-02-09T02:15:15.830Z,-2.93
2023-02-09T02:16:51.472Z,-2.93
2023-02-09T02:17:55.756Z,-3.09
2023-02-09T02:18:45.163Z,-3.06
2023-02-09T02:20:11.110Z,-3.00
2023-02-09T02:21:17.081Z,-2.97
2023-02-09T02:22:41.001Z,-2.93
2023-02-09T02:23:28.614Z,-3.11
2023-02-09T02:24:28.535Z,-2.88
2023-02-09T02:25:23.418Z,-2.91
2023-02-09T02:26:32.601Z,-2.90
2023-02-09T02:27:37.060Z,-2.99
2023-02-09T02:28:56.466Z,-2.92
2023-02-09T02:30:03.969Z,-2.98
2023-02-09T02:30:51.508Z,-2.95
2023-02-09T02:31:35.980Z,-2.95
2023-02-09T02:32:33.591Z,-3.01
2023-02-09T02:33:19.951Z,-2.94
2023-02-09T02:34:25.844Z,-2.95
2023-02-09T02:35:43.695Z,-2.94
2023-02-09T02:36:44.652Z,-2.96
2023-02-09T02:37:41.098Z,-2.93
2023-02-09T02:38:36.771Z,-2.92
2023-02-09T02:39:24.316Z,-2.91
2023-02-09T02:40:26.787Z,-2.88
2023-02-09T02:41:14.134Z,-2.90
2023-02-09T02:42:40.024Z,-2.92
2023-02-09T02:43:36.781Z,-2.88
2023-02-09T02:44:18.998Z,-2.87
2023-02-09T02:45:12.234Z,-3.06
2023-02-09T02:46:04.451Z,-2.93
2023-02-09T02:46:51.044Z,-2.84
2023-02-09T02:47:37.773Z,-2.82
2023-02-09T02:48:37.526Z,-2.83
2023-02-09T02:49:28.554Z,-2.98
2023-02-09T02:50:16.293Z,-2.79
2023-02-09T02:51:05.874Z,-2.78
2023-02-09T02:51:51.911Z,-2.79
2023-02-09T02:52:33.695Z,-2.81
2023-02-09T02:53:17.979Z,-2.91
2023-02-09T02:54:08.299Z,-2.86
2023-02-09T02:55:00.579Z,-2.87
2023-02-09T02:55:44.873Z,-2.88
2023-02-09T02:56:31.813Z,-2.89
2023-02-09T02:57:19.099Z,-2.88
2023-02-09T02:58:06.181Z,-2.89
2023-02-09T02:58:50.989Z,-2.98
2023-02-09T02:59:42.678Z,-3.06
2023-02-09T03:00:32.885Z,-2.92
2023-02-09T03:01:18.769Z,-2.91
2023-02-09T03:02:11.596Z,-2.91
2023-02-09T03:02:55.575Z,-3.18
2023-02-09T03:03:39.815Z,-2.92
2023-02-09T03:04:22.438Z,-2.91
2023-02-09T03:05:05.606Z,-2.92
2023-02-09T03:05:48.905Z,-2.92
2023-02-09T03:06:34.021Z,-2.99
2023-02-09T03:07:17.642Z,-2.95
2023-02-09T03:07:59.270Z,-2.96
2023-02-09T03:08:51.652Z,-3.02
2023-02-09T03:09:33.270Z,-3.16
2023-02-09T03:10:34.921Z,-2.96
2023-02-09T03:11:18.530Z,-2.99
2023-02-09T03:12:15.670Z,-3.02
2023-02-09T03:13:38.913Z,-2.98
2023-02-09T03:14:40.376Z,-2.96
2023-02-09T03:20:17.033Z,-2.94
2023-02-09T03:21:01.401Z,-2.96
2023-02-09T03:22:08.009Z,-3.22
2023-02-09T03:22:56.347Z,-2.99
2023-02-09T03:23:47.288Z,-3.00
2023-02-09T03:24:39.524Z,-2.95
2023-02-09T03:25:34.154Z,-3.01
2023-02-09T03:26:25.254Z,-3.02
2023-02-09T03:27:16.621Z,-3.04
2023-02-09T03:28:07.718Z,-3.13
2023-02-09T03:28:54.785Z,-3.22
2023-02-09T03:29:38.015Z,-3.17
2023-02-09T03:30:21.855Z,-3.03
2023-02-09T03:31:04.774Z,-3.05
2023-02-09T03:31:48.935Z,-3.02
2023-02-09T03:32:32.057Z,-3.24
2023-02-09T03:33:22.521Z,-3.15
2023-02-09T03:34:06.048Z,-3.07
2023-02-09T03:34:47.970Z,-3.10
2023-02-09T03:35:39.523Z,-3.14
2023-02-09T03:36:22.984Z,-3.13
2023-02-09T03:37:04.657Z,-3.13
2023-02-09T03:37:46.360Z,-3.13
2023-02-09T03:38:28.458Z,-3.38
2023-02-09T03:39:10.095Z,-3.17
2023-02-09T03:39:51.767Z,-3.16
2023-02-09T03:40:34.546Z,-3.19
2023-02-09T03:41:16.140Z,-3.24
2023-02-09T03:41:57.707Z,-3.26
2023-02-09T03:42:39.287Z,-3.43
2023-02-09T03:43:41.221Z,-3.26
2023-02-09T03:44:28.741Z,-3.17
2023-02-09T03:45:10.355Z,-3.34
2023-02-09T03:45:51.982Z,-3.18
2023-02-09T03:46:33.654Z,-3.39
2023-02-09T03:47:15.458Z,-3.18
2023-02-09T03:47:57.093Z,-3.15
2023-02-09T03:48:39.024Z,-3.17
2023-02-09T03:49:20.770Z,-3.10
2023-02-09T03:50:02.984Z,-3.18
2023-02-09T03:50:44.942Z,-3.09
2023-02-09T03:51:26.823Z,-3.18
2023-02-09T03:52:11.249Z,-3.02
2023-02-09T03:52:52.932Z,-3.01
2023-02-09T03:53:36.442Z,-3.01
2023-02-09T03:54:18.272Z,-3.00
2023-02-09T03:54:59.920Z,-3.11
2023-02-09T03:55:41.881Z,-3.13
2023-02-09T03:56:24.851Z,-3.03
2023-02-09T03:57:07.626Z,-3.07
2023-02-09T03:57:49.317Z,-3.14
2023-02-09T03:58:31.689Z,-3.03
2023-02-09T03:59:13.503Z,-3.26
2023-02-09T03:59:55.161Z,-3.22
2023-02-09T04:00:36.794Z,-3.26
2023-02-09T04:01:18.574Z,-3.28
2023-02-09T04:02:00.323Z,-3.17
2023-02-09T04:02:42.872Z,-3.17
2023-02-09T04:03:24.525Z,-3.18
2023-02-09T04:04:06.149Z,-3.20
2023-02-09T04:04:47.800Z,-3.20
2023-02-09T04:05:29.674Z,-3.20
2023-02-09T04:06:11.349Z,-3.28
2023-02-09T04:06:53.688Z,-3.42
2023-02-09T04:07:35.374Z,-3.19
2023-02-09T04:08:16.950Z,-3.19
2023-02-09T04:08:59.531Z,-3.31
2023-02-09T04:09:41.165Z,-3.16
2023-02-09T04:10:22.838Z,-3.17
2023-02-09T04:11:04.548Z,-3.18
2023-02-09T04:11:47.162Z,-3.41
2023-02-09T04:12:28.799Z,-3.26
2023-02-09T04:13:10.457Z,-3.23
2023-02-09T04:13:55.145Z,-3.45
2023-02-09T04:14:36.849Z,-3.21
2023-02-09T04:15:18.450Z,-3.22
2023-02-09T04:16:00.151Z,-3.20
2023-02-09T04:16:41.958Z,-3.31
2023-02-09T04:17:23.728Z,-3.20
2023-02-09T04:18:05.466Z,-3.33
2023-02-09T04:18:47.135Z,-3.35
2023-02-09T04:19:28.844Z,-3.40
2023-02-09T04:20:10.868Z,-3.23
2023-02-09T04:20:52.557Z,-3.47
2023-02-09T04:21:34.181Z,-3.34
2023-02-09T04:22:15.789Z,-3.39
2023-02-09T04:22:58.944Z,-3.27
2023-02-09T04:23:40.758Z,-3.28
2023-02-09T04:24:22.367Z,-3.40
2023-02-09T04:25:04.214Z,-3.29
2023-02-09T04:25:45.891Z,-3.31
2023-02-09T04:26:27.626Z,-3.35
2023-02-09T04:27:09.298Z,-3.34
2023-02-09T04:27:51.175Z,-3.50
2023-02-09T04:28:32.803Z,-3.43
2023-02-09T04:29:14.514Z,-3.37
2023-02-09T04:29:56.235Z,-3.58
2023-02-09T04:30:37.965Z,-3.39
2023-02-09T04:31:19.925Z,-3.41
2023-02-09T04:32:01.796Z,-3.49
2023-02-09T04:32:43.508Z,-3.52
2023-02-09T04:33:25.276Z,-3.44
2023-02-09T04:34:06.884Z,-3.50
2023-02-09T04:34:48.486Z,-3.70
2023-02-09T04:35:30.258Z,-3.68
2023-02-09T04:36:12.306Z,-3.54
2023-02-09T04:36:54.492Z,-3.48
2023-02-09T04:37:36.165Z,-3.63
2023-02-09T04:38:20.542Z,-3.44
2023-02-09T04:39:02.391Z,-3.43
2023-02-09T04:39:44.020Z,-3.51
2023-02-09T04:40:25.703Z,-3.46
2023-02-09T04:41:07.469Z,-3.54
2023-02-09T04:41:49.123Z,-3.46
2023-02-09T04:42:32.298Z,-3.47
2023-02-09T04:43:14.172Z,-3.50
2023-02-09T04:43:55.902Z,-3.57
2023-02-09T04:44:37.516Z,-3.50
2023-02-09T04:45:19.269Z,-3.68
2023-02-09T04:46:01.361Z,-3.53
2023-02-09T04:46:45.405Z,-3.50
2023-02-09T04:47:27.554Z,-3.64
2023-02-09T04:48:13.272Z,-3.51
2023-02-09T04:48:55.022Z,-3.70
2023-02-09T04:49:36.729Z,-3.56
2023-02-09T04:50:18.514Z,-3.62
2023-02-09T04:51:00.187Z,-3.52
2023-02-09T04:51:41.805Z,-3.52
2023-02-09T04:52:23.410Z,-3.54
2023-02-09T04:53:05.398Z,-3.71
2023-02-09T04:53:47.090Z,-3.62
2023-02-09T04:54:28.841Z,-3.47
2023-02-09T04:55:10.529Z,-3.46
2023-02-09T04:55:52.881Z,-3.44
2023-02-09T04:56:36.935Z,-3.45
2023-02-09T04:57:37.874Z,-3.42
2023-02-09T04:58:42.128Z,-3.43
2023-02-09T04:59:35.853Z,-3.51
2023-02-09T05:00:17.741Z,-3.46
2023-02-09T05:01:00.181Z,-3.50
2023-02-09T05:01:41.897Z,-3.51
2023-02-09T05:02:23.522Z,-3.79
2023-02-09T05:03:05.184Z,-3.54
2023-02-09T05:03:47.173Z,-3.60
2023-02-09T05:04:28.843Z,-3.58
2023-02-09T05:05:10.506Z,-3.60
2023-02-09T05:06:01.005Z,-3.61
2023-02-09T05:06:42.655Z,-3.64
2023-02-09T05:07:26.400Z,-3.89
2023-02-09T05:08:08.872Z,-3.76
2023-02-09T05:08:50.603Z,-3.76
2023-02-09T05:09:32.395Z,-3.76
2023-02-09T05:10:14.084Z,-3.97
2023-02-09T05:10:56.042Z,-3.81
2023-02-09T05:11:37.639Z,-3.75
2023-02-09T05:12:19.302Z,-3.75
2023-02-09T05:13:00.978Z,-3.81
2023-02-09T05:13:43.331Z,-3.82
2023-02-09T05:14:25.084Z,-3.84
2023-02-09T05:15:07.034Z,-3.70
2023-02-09T05:15:49.504Z,-3.72
2023-02-09T05:16:31.242Z,-3.72
2023-02-09T05:17:12.945Z,-3.80
2023-02-09T05:17:55.065Z,-3.69
2023-02-09T05:18:36.711Z,-3.90
2023-02-09T05:19:18.381Z,-3.89
2023-02-09T05:20:00.073Z,-3.68
2023-02-09T05:20:43.841Z,-3.78
2023-02-09T05:21:25.576Z,-3.68
2023-02-09T05:22:07.242Z,-3.65
2023-02-09T05:22:50.208Z,-3.60
2023-02-09T05:23:32.232Z,-3.58
2023-02-09T05:24:13.841Z,-3.54
2023-02-09T05:24:55.507Z,-3.58
2023-02-09T05:25:37.758Z,-3.53
2023-02-09T05:26:19.440Z,-3.70
2023-02-09T05:27:01.106Z,-3.57
2023-02-09T05:27:42.745Z,-3.53
2023-02-09T05:28:25.130Z,-3.53
2023-02-09T05:29:06.899Z,-3.92
2023-02-09T05:29:48.598Z,-3.50
2023-02-09T05:30:31.199Z,-3.50
2023-02-09T05:31:12.856Z,-3.58
2023-02-09T05:31:54.517Z,-3.53
2023-02-09T05:32:36.439Z,-3.63
2023-02-09T05:33:18.032Z,-3.74
2023-02-09T05:34:01.086Z,-3.58
2023-02-09T05:34:42.815Z,-3.66
2023-02-09T05:35:24.912Z,-3.60
2023-02-09T05:36:09.373Z,-3.63
2023-02-09T05:36:51.284Z,-3.61
2023-02-09T05:37:33.004Z,-3.55
2023-02-09T05:38:14.741Z,-3.61
2023-02-09T05:38:56.422Z,-3.71
2023-02-09T05:39:38.027Z,-3.60
2023-02-09T05:40:19.692Z,-3.64
2023-02-09T05:41:09.073Z,-3.70
2023-02-09T05:42:09.180Z,-3.79
2023-02-09T05:42:50.820Z,-3.78
2023-02-09T05:43:32.554Z,-3.72
2023-02-09T05:44:14.230Z,-3.91
2023-02-09T05:44:55.882Z,-4.07
2023-02-09T05:45:37.532Z,-3.72
2023-02-09T05:46:19.233Z,-3.64
2023-02-09T05:47:01.048Z,-3.61
2023-02-09T05:47:42.724Z,-3.57
2023-02-09T05:48:25.103Z,-3.54
2023-02-09T05:49:06.794Z,-3.73
2023-02-09T05:49:48.503Z,-3.81
2023-02-09T05:50:30.139Z,-3.56
2023-02-09T05:51:11.734Z,-3.68
2023-02-09T05:51:53.333Z,-3.53
2023-02-09T05:52:35.094Z,-3.85
2023-02-09T05:53:17.005Z,-3.54
2023-02-09T05:53:58.599Z,-3.55
2023-02-09T05:54:40.570Z,-3.55
2023-02-09T05:55:22.220Z,-3.55
2023-02-09T05:56:04.025Z,-3.67
2023-02-09T05:56:45.687Z,-3.54
2023-02-09T05:57:27.402Z,-3.53
2023-02-09T05:58:10.792Z,-3.59
2023-02-09T05:58:52.370Z,-3.63
2023-02-09T05:59:34.215Z,-3.65
2023-02-09T06:00:16.280Z,-3.73
2023-02-09T06:00:57.941Z,-3.76
2023-02-09T06:01:40.134Z,-3.92
2023-02-09T06:02:21.954Z,-3.81
2023-02-09T06:03:03.714Z,-4.01
2023-02-09T06:03:45.420Z,-3.85
2023-02-09T06:04:27.660Z,-3.79
2023-02-09T06:05:09.486Z,-3.79
2023-02-09T06:05:51.278Z,-3.89
2023-02-09T06:06:33.073Z,-3.79
2023-02-09T06:07:14.927Z,-3.94
2023-02-09T06:07:57.916Z,-3.78
2023-02-09T06:08:39.575Z,-3.81
2023-02-09T06:09:21.386Z,-3.90
2023-02-09T06:10:03.491Z,-3.78
2023-02-09T06:10:45.388Z,-3.91
2023-02-09T06:11:27.584Z,-3.93
2023-02-09T06:12:09.286Z,-3.86
2023-02-09T06:12:50.884Z,-3.93
2023-02-09T06:13:33.442Z,-4.00
2023-02-09T06:14:15.753Z,-3.90
2023-02-09T06:14:57.347Z,-4.15
2023-02-09T06:15:39.027Z,-4.08
2023-02-09T06:16:20.887Z,-4.08
2023-02-09T06:17:02.548Z,-4.18
2023-02-09T06:17:44.659Z,-4.10
2023-02-09T06:18:26.276Z,-4.31
2023-02-09T06:19:12.862Z,-4.21
2023-02-09T06:19:54.490Z,-4.34
2023-02-09T06:20:36.065Z,-4.29
2023-02-09T06:21:17.795Z,-4.81
2023-02-09T06:21:59.502Z,-4.31
2023-02-09T06:22:41.164Z,-4.31
2023-02-09T06:23:22.858Z,-4.39
2023-02-09T06:24:04.933Z,-4.54
2023-02-09T06:24:46.640Z,-4.33
2023-02-09T06:25:28.402Z,-4.44
2023-02-09T06:26:12.170Z,-4.26
2023-02-09T06:26:53.968Z,-4.30
2023-02-09T06:27:36.217Z,-4.12
2023-02-09T06:28:17.905Z,-4.12
2023-02-09T06:28:59.665Z,-3.94
2023-02-09T06:29:41.303Z,-3.91
2023-02-09T06:30:22.916Z,-3.90
2023-02-09T06:31:05.677Z,-3.85
2023-02-09T06:31:47.608Z,-3.94
2023-02-09T06:32:30.694Z,-3.64
2023-02-09T06:33:12.492Z,-3.56
2023-02-09T06:33:54.244Z,-3.53
2023-02-09T06:34:35.887Z,-3.49
2023-02-09T06:35:17.657Z,-3.75
2023-02-09T06:35:59.514Z,-3.57
2023-02-09T06:36:41.196Z,-3.64
2023-02-09T06:37:22.970Z,-3.71
2023-02-09T06:38:04.702Z,-3.78
2023-02-09T06:38:46.385Z,-3.86
2023-02-09T06:39:29.423Z,-4.00
2023-02-09T06:40:11.469Z,-4.01
2023-02-09T06:40:53.175Z,-4.08
2023-02-09T06:41:35.634Z,-4.12
2023-02-09T06:42:17.277Z,-4.14
2023-02-09T06:42:58.967Z,-4.18
2023-02-09T06:43:40.686Z,-4.26
2023-02-09T06:44:22.394Z,-3.99
2023-02-09T06:45:04.270Z,-4.00
2023-02-09T06:45:45.978Z,-3.91
2023-02-09T06:46:28.548Z,-3.90
2023-02-09T06:47:10.233Z,-4.09
2023-02-09T06:47:51.855Z,-3.89
2023-02-09T06:48:33.595Z,-3.88
2023-02-09T06:49:15.461Z,-3.89
2023-02-09T06:49:57.453Z,-4.05
2023-02-09T06:50:39.709Z,-4.10
2023-02-09T06:51:21.468Z,-4.23
2023-02-09T06:52:03.345Z,-4.11
2023-02-09T06:52:45.231Z,-4.22
2023-02-09T06:53:27.013Z,-4.33
2023-02-09T06:54:08.608Z,-4.29
2023-02-09T06:54:50.202Z,-4.34
2023-02-09T06:55:32.476Z,-4.55
2023-02-09T06:56:14.209Z,-4.33
2023-02-09T06:56:55.932Z,-4.42
2023-02-09T06:57:37.821Z,-4.73
2023-02-09T06:58:20.418Z,-4.31
2023-02-09T06:59:02.090Z,-4.14
2023-02-09T06:59:43.718Z,-4.05
2023-02-09T07:00:25.888Z,-3.99
2023-02-09T07:01:11.114Z,-4.08
2023-02-09T07:01:54.855Z,-4.20
2023-02-09T07:02:36.710Z,-4.03
2023-02-09T07:03:18.459Z,-4.06
2023-02-09T07:04:00.130Z,-4.10
2023-02-09T07:04:41.896Z,-4.17
2023-02-09T07:05:23.542Z,-4.43
2023-02-09T07:06:06.559Z,-4.29
2023-02-09T07:06:48.245Z,-4.53
2023-02-09T07:07:29.957Z,-4.37
2023-02-09T07:08:11.622Z,-4.47
2023-02-09T07:08:53.355Z,-4.34
2023-02-09T07:09:34.989Z,-4.37
2023-02-09T07:10:17.873Z,-4.24
2023-02-09T07:11:03.753Z,-4.27
2023-02-09T07:11:45.394Z,-4.35
2023-02-09T07:12:27.144Z,-4.15
2023-02-09T07:13:08.878Z,-4.14
2023-02-09T07:13:55.892Z,-4.17
2023-02-09T07:14:37.548Z,-4.04
2023-02-09T07:15:19.327Z,-4.16
2023-02-09T07:16:07.880Z,-4.06
2023-02-09T07:16:58.388Z,-4.01
2023-02-09T07:17:40.529Z,-3.99
2023-02-09T07:18:22.235Z,-3.98
2023-02-09T07:19:03.869Z,-4.00
2023-02-09T07:19:46.401Z,-3.88
2023-02-09T07:20:28.138Z,-3.93
2023-02-09T07:21:15.548Z,-3.77
2023-02-09T07:21:57.244Z,-3.77
2023-02-09T07:22:39.005Z,-3.83
2023-02-09T07:23:20.689Z,-3.94
2023-02-09T07:24:04.154Z,-3.84
2023-02-09T07:24:45.897Z,-3.95
2023-02-09T07:25:27.517Z,-3.76
2023-02-09T07:26:15.340Z,-3.75
2023-02-09T07:26:57.040Z,-3.88
2023-02-09T07:27:43.760Z,-3.79
2023-02-09T07:28:25.519Z,-3.77
2023-02-09T07:29:07.330Z,-3.99
2023-02-09T07:29:49.581Z,-3.91
2023-02-09T07:30:31.304Z,-4.16
2023-02-09T07:31:15.276Z,-4.06
2023-02-09T07:31:57.055Z,-4.14
2023-02-09T07:32:39.553Z,-4.09
2023-02-09T07:33:21.912Z,-4.04
2023-02-09T07:34:06.157Z,-3.96
2023-02-09T07:34:47.925Z,-3.88
2023-02-09T07:35:29.755Z,-3.84
2023-02-09T07:36:13.648Z,-3.84
2023-02-09T07:36:55.547Z,-3.81
2023-02-09T07:37:37.317Z,-3.79
2023-02-09T07:38:19.531Z,-4.07
2023-02-09T07:39:01.290Z,-3.99
2023-02-09T07:39:43.086Z,-3.75
2023-02-09T07:40:25.031Z,-3.96
2023-02-09T07:41:07.791Z,-3.73
2023-02-09T07:41:49.427Z,-3.99
2023-02-09T07:42:31.062Z,-3.99
2023-02-09T07:43:16.095Z,-3.97
2023-02-09T07:44:00.788Z,-4.04
2023-02-09T07:44:42.633Z,-4.06
2023-02-09T07:45:24.251Z,-4.01
2023-02-09T07:46:07.991Z,-3.96
2023-02-09T07:46:49.773Z,-3.94
2023-02-09T07:47:31.514Z,-3.90
2023-02-09T07:48:13.107Z,-3.86
2023-02-09T07:48:54.686Z,-3.81
2023-02-09T07:49:36.380Z,-3.85
2023-02-09T07:50:20.049Z,-3.71
2023-02-09T07:51:02.391Z,-3.67
2023-02-09T07:51:44.338Z,-3.65
2023-02-09T07:52:26.246Z,-4.24
2023-02-09T07:53:08.088Z,-3.87
2023-02-09T07:53:49.695Z,-3.53
2023-02-09T07:54:31.318Z,-3.59
2023-02-09T07:55:12.916Z,-3.46
2023-02-09T07:55:54.579Z,-3.42
2023-02-09T07:56:36.197Z,-3.40
2023-02-09T07:57:17.821Z,-3.57
2023-02-09T07:57:59.405Z,-3.37
2023-02-09T07:58:41.052Z,-3.34
2023-02-09T07:59:22.876Z,-3.40
2023-02-09T08:00:04.981Z,-3.80
2023-02-09T08:01:03.998Z,-3.21
2023-02-09T08:01:45.856Z,-3.41
2023-02-09T08:02:35.594Z,-3.18
2023-02-09T08:03:19.469Z,-3.23
2023-02-09T08:04:01.119Z,-3.22
2023-02-09T08:04:43.466Z,-2.95
2023-02-09T08:05:58.270Z,-2.77
2023-02-09T08:06:45.052Z,-2.73
2023-02-09T08:07:30.168Z,-2.70
2023-02-09T08:08:11.798Z,-2.71
2023-02-09T08:08:53.999Z,-2.62
2023-02-09T08:09:35.572Z,-2.62
2023-02-09T08:10:18.999Z,-3.11
2023-02-09T08:11:01.496Z,-2.68
2023-02-09T08:11:55.415Z,-2.62
2023-02-09T08:12:56.018Z,-2.48
2023-02-09T08:13:40.786Z,-2.40
2023-02-09T08:14:28.717Z,-2.32
2023-02-09T08:15:11.536Z,-2.24
2023-02-09T08:15:57.633Z,-2.22
2023-02-09T08:16:40.173Z,-2.08
2023-02-09T08:17:23.968Z,-2.00
2023-02-09T08:18:13.029Z,-1.92
2023-02-09T08:19:19.710Z,-1.81
2023-02-09T08:20:15.776Z,-1.81
2023-02-09T08:20:58.062Z,-1.88
2023-02-09T08:21:43.732Z,-1.65
2023-02-09T08:22:29.582Z,-1.59
2023-02-09T08:23:19.686Z,-1.59
2023-02-09T08:24:02.952Z,-1.48
2023-02-09T08:24:44.698Z,-1.45
2023-02-09T08:25:26.452Z,-1.45
2023-02-09T08:26:11.048Z,-1.61
2023-02-09T08:26:52.772Z,-1.70
2023-02-09T08:27:37.244Z,-1.50
2023-02-09T08:28:19.909Z,-1.61
2023-02-09T08:29:02.119Z,-1.54
2023-02-09T08:29:43.781Z,-1.42
2023-02-09T08:30:25.681Z,-1.52
2023-02-09T08:31:07.408Z,-1.29
2023-02-09T08:31:49.178Z,-1.39
2023-02-09T08:32:30.848Z,-1.25
2023-02-09T08:33:12.585Z,-1.45
2023-02-09T08:33:54.277Z,-1.30
2023-02-09T08:34:35.947Z,-1.23
2023-02-09T08:35:17.877Z,-1.12
2023-02-09T08:35:59.529Z,-1.04
2023-02-09T08:36:41.463Z,-0.98
2023-02-09T08:37:23.113Z,-0.80
2023-02-09T08:38:04.796Z,-0.67
2023-02-09T08:38:48.048Z,-0.88
2023-02-09T08:39:29.772Z,-0.60
2023-02-09T08:40:11.806Z,-0.74
2023-02-09T08:40:53.491Z,-0.47
2023-02-09T08:41:37.952Z,-0.48
2023-02-09T08:42:19.695Z,-0.54
2023-02-09T08:43:01.349Z,-0.62
2023-02-09T08:43:47.671Z,-0.73
2023-02-09T08:44:29.268Z,-0.73
2023-02-09T08:45:11.612Z,-0.62
2023-02-09T08:45:53.391Z,-1.13
2023-02-09T08:46:36.133Z,-0.79
2023-02-09T08:47:18.003Z,-0.69
2023-02-09T08:47:59.641Z,-0.91
2023-02-09T08:48:44.829Z,-0.68
2023-02-09T08:49:27.870Z,-0.65
2023-02-09T08:50:09.639Z,-0.76
2023-02-09T08:50:51.264Z,-0.57
2023-02-09T08:51:32.863Z,-0.48
2023-02-09T08:52:15.593Z,-0.23
2023-02-09T08:52:57.929Z,-0.07
2023-02-09T08:53:40.038Z,0.09
2023-02-09T08:54:21.721Z,0.17
2023-02-09T08:55:04.518Z,0.24
2023-02-09T08:55:46.612Z,0.59
2023-02-09T08:56:28.440Z,0.74
2023-02-09T08:57:10.086Z,0.88
2023-02-09T08:57:51.714Z,0.99
2023-02-09T08:58:33.502Z,0.94
2023-02-09T08:59:15.135Z,1.11
2023-02-09T08:59:56.903Z,0.86
2023-02-09T09:00:38.559Z,0.78
2023-02-09T09:01:20.325Z,0.90
2023-02-09T09:02:02.161Z,1.12
2023-02-09T09:02:44.258Z,1.06
2023-02-09T09:03:31.602Z,0.80
2023-02-09T09:04:13.523Z,1.03
2023-02-09T09:04:55.116Z,0.99
2023-02-09T09:05:37.666Z,0.90
2023-02-09T09:06:19.387Z,0.80
2023-02-09T09:07:01.040Z,0.98
2023-02-09T09:07:42.723Z,0.94
2023-02-09T09:08:24.395Z,1.12
2023-02-09T09:09:06.069Z,1.23
2023-02-09T09:09:47.776Z,1.34
2023-02-09T09:10:29.691Z,1.51
2023-02-09T09:11:13.187Z,1.43
2023-02-09T09:11:54.879Z,1.49
2023-02-09T09:12:37.469Z,1.60
2023-02-09T09:13:19.399Z,1.60
2023-02-09T09:14:00.998Z,1.74
2023-02-09T09:14:44.398Z,1.79
2023-02-09T09:15:25.992Z,1.90
2023-02-09T09:16:14.341Z,2.02
2023-02-09T09:16:58.235Z,2.06
2023-02-09T09:17:39.911Z,2.12
2023-02-09T09:18:24.058Z,2.05
2023-02-09T09:19:05.756Z,2.46
2023-02-09T09:19:47.365Z,2.57
2023-02-09T09:20:28.962Z,2.66
2023-02-09T09:21:12.461Z,2.72
2023-02-09T09:21:54.133Z,2.49
2023-02-09T09:22:36.032Z,2.83
2023-02-09T09:23:17.695Z,2.70
2023-02-09T09:23:59.316Z,2.94
2023-02-09T09:24:41.014Z,2.82
2023-02-09T09:25:22.586Z,2.82
2023-02-09T09:26:04.550Z,2.61
2023-02-09T09:26:46.156Z,2.67
2023-02-09T09:27:28.343Z,2.72
2023-02-09T09:28:10.550Z,2.62
2023-02-09T09:28:52.302Z,2.49
2023-02-09T09:29:35.329Z,2.87
2023-02-09T09:30:17.119Z,2.68
2023-02-09T09:31:05.926Z,2.60
2023-02-09T09:31:50.378Z,2.42
2023-02-09T09:32:32.135Z,2.49
2023-02-09T09:33:13.810Z,2.41
2023-02-09T09:33:55.497Z,2.28